createdAt,value
2018-03-06T00:00:29.346Z,20.70
2018-03-06T00:06:33.948Z,21.07
2018-03-06T00:12:38.572Z,20.23
2018-03-06T00:18:43.198Z,19.80
2018-03-06T00:24:47.712Z,19.50
2018-03-06T00:30:52.670Z,19.10
2018-03-06T00:36:57.140Z,18.40
2018-03-06T00:43:01.627Z,19.50
2018-03-06T00:49:06.295Z,20.77
2018-03-06T00:55:12.358Z,22.30
2018-03-06T01:01:16.908Z,20.60
2018-03-06T01:07:21.591Z,19.60
2018-03-06T01:13:26.928Z,19.37
2018-03-06T01:19:31.400Z,19.03
2018-03-06T01:25:37.022Z,18.23
2018-03-06T01:31:41.549Z,18.97
2018-03-06T01:37:46.805Z,18.53
2018-03-06T01:43:51.464Z,19.80
2018-03-06T01:49:56.270Z,18.13
2018-03-06T01:56:01.096Z,17.27
2018-03-06T02:02:05.912Z,22.00
2018-03-06T02:08:10.400Z,21.20
2018-03-06T02:14:15.074Z,20.63
2018-03-06T02:20:19.660Z,20.53
2018-03-06T02:26:24.289Z,22.80
2018-03-06T02:32:29.018Z,21.40
2018-03-06T02:38:33.522Z,18.70
2018-03-06T02:44:38.113Z,21.97
2018-03-06T02:50:43.633Z,19.87
2018-03-06T02:56:49.334Z,21.30
2018-03-06T03:02:53.874Z,22.77
2018-03-06T03:08:58.491Z,23.10
2018-03-06T03:15:04.561Z,22.97
2018-03-06T03:21:09.098Z,22.23
2018-03-06T03:27:14.364Z,23.17
2018-03-06T03:33:18.969Z,22.00
2018-03-06T03:39:23.648Z,20.97
2018-03-06T03:45:28.947Z,20.00
2018-03-06T03:51:33.645Z,22.60
2018-03-06T03:57:39.003Z,23.13
2018-03-06T04:03:43.680Z,22.03
2018-03-06T04:09:48.462Z,22.20
2018-03-06T04:15:53.592Z,22.10
2018-03-06T04:21:58.132Z,25.33
2018-03-06T04:28:03.627Z,24.00
2018-03-06T04:34:08.146Z,28.77
2018-03-06T04:40:12.682Z,26.37
2018-03-06T04:46:17.405Z,28.57
2018-03-06T04:52:23.305Z,29.57
2018-03-06T04:58:28.673Z,27.43
2018-03-06T05:04:33.195Z,32.60
2018-03-06T05:10:38.469Z,32.30
2018-03-06T05:16:43.361Z,27.47
2018-03-06T05:22:48.690Z,28.57
2018-03-06T05:28:53.768Z,28.80
2018-03-06T05:34:59.039Z,31.57
2018-03-06T05:41:05.236Z,31.07
2018-03-06T05:47:09.829Z,31.57
2018-03-06T05:53:14.315Z,31.33
2018-03-06T05:59:19.085Z,30.33
2018-03-06T06:05:24.247Z,30.53
2018-03-06T06:11:28.732Z,30.03
2018-03-06T06:17:33.455Z,29.40
2018-03-06T06:23:38.213Z,32.13
2018-03-06T06:29:42.708Z,35.43
2018-03-06T06:35:47.232Z,34.37
2018-03-06T06:41:53.070Z,32.80
2018-03-06T06:47:58.475Z,35.63
2018-03-06T06:54:02.967Z,32.30
2018-03-06T07:00:07.454Z,32.50
2018-03-06T07:06:12.746Z,32.50
2018-03-06T07:12:17.218Z,44.80
2018-03-06T07:18:22.090Z,51.87
2018-03-06T07:24:26.598Z,40.10
2018-03-06T07:30:31.064Z,32.57
2018-03-06T07:36:35.587Z,42.73
2018-03-06T07:42:40.929Z,40.17
2018-03-06T07:48:45.413Z,40.23
2018-03-06T07:54:50.939Z,44.83
2018-03-06T08:00:55.816Z,40.57
2018-03-06T08:07:00.396Z,37.90
2018-03-06T08:13:04.861Z,33.30
2018-03-06T08:19:09.391Z,33.50
2018-03-06T08:25:13.889Z,31.73
2018-03-06T08:31:18.358Z,31.50
2018-03-06T08:37:24.571Z,50.97
2018-03-06T08:43:29.131Z,31.13
2018-03-06T08:49:34.445Z,30.63
2018-03-06T08:55:39.684Z,28.43
2018-03-06T09:01:44.191Z,29.83
2018-03-06T09:07:49.415Z,31.10
2018-03-06T09:13:54.022Z,29.70
2018-03-06T09:19:58.491Z,31.57
2018-03-06T09:26:03.036Z,32.20
2018-03-06T09:32:08.566Z,32.90
2018-03-06T09:38:13.178Z,34.47
2018-03-06T09:44:17.631Z,39.50
2018-03-06T09:50:23.242Z,38.30
2018-03-06T09:56:27.875Z,35.00
2018-03-06T10:02:32.579Z,34.50
2018-03-06T10:08:37.056Z,36.50
2018-03-06T10:14:41.601Z,36.43
2018-03-06T10:20:46.097Z,37.20
2018-03-06T10:26:51.233Z,37.80
2018-03-06T10:32:55.749Z,36.83
2018-03-06T10:39:01.011Z,33.60
2018-03-06T10:45:05.476Z,34.43
2018-03-06T10:51:09.987Z,33.70
2018-03-06T10:57:14.513Z,33.10
2018-03-06T11:03:23.989Z,32.33
2018-03-06T11:09:28.567Z,29.20
2018-03-06T11:15:33.105Z,28.60
2018-03-06T11:21:37.717Z,28.83
2018-03-06T11:27:42.212Z,27.13
2018-03-06T11:33:46.873Z,36.20
2018-03-06T11:39:52.137Z,32.30
2018-03-06T11:45:56.683Z,30.80
2018-03-06T11:52:01.214Z,30.90
2018-03-06T11:58:05.684Z,33.40
2018-03-06T12:04:10.213Z,31.93
2018-03-06T12:10:14.732Z,28.90
2018-03-06T12:16:20.261Z,28.27
2018-03-06T12:22:24.932Z,30.90
2018-03-06T12:28:30.208Z,27.20
2018-03-06T12:34:34.724Z,24.60
2018-03-06T12:40:39.342Z,25.40
2018-03-06T12:46:44.056Z,24.80
2018-03-06T12:52:49.622Z,27.27
2018-03-06T12:58:55.042Z,28.37
2018-03-06T13:04:59.633Z,27.97
2018-03-06T13:11:04.199Z,28.13
2018-03-06T13:17:08.709Z,24.63
2018-03-06T13:23:13.193Z,27.90
2018-03-06T13:29:18.444Z,27.30
2018-03-06T13:35:26.067Z,26.33
2018-03-06T13:41:30.703Z,26.03
2018-03-06T13:47:36.017Z,25.77
2018-03-06T13:53:41.347Z,26.90
2018-03-06T13:59:45.938Z,25.57
2018-03-06T14:05:51.065Z,24.27
2018-03-06T14:11:56.447Z,26.43
2018-03-06T14:18:01.016Z,25.77
2018-03-06T14:24:05.511Z,26.20
2018-03-06T14:30:09.990Z,30.30
2018-03-06T14:36:14.505Z,30.13
2018-03-06T14:42:20.063Z,36.90
2018-03-06T14:48:25.446Z,30.27
2018-03-06T14:54:29.982Z,34.97
2018-03-06T15:00:34.510Z,34.47
2018-03-06T15:06:39.899Z,35.10
2018-03-06T15:12:44.412Z,37.30
2018-03-06T15:18:48.973Z,40.60
2018-03-06T15:24:53.804Z,36.60
2018-03-06T15:30:58.337Z,38.70
2018-03-06T15:37:03.027Z,39.97
2018-03-06T15:43:07.501Z,39.53
2018-03-06T15:49:12.005Z,42.43
2018-03-06T15:55:16.544Z,42.60
2018-03-06T16:01:21.512Z,42.83
2018-03-06T16:07:26.283Z,44.00
2018-03-06T16:13:30.895Z,54.60
2018-03-06T16:19:35.448Z,44.93
2018-03-06T16:25:39.922Z,47.00
2018-03-06T16:31:44.461Z,48.50
2018-03-06T16:37:50.058Z,46.63
2018-03-06T16:43:54.868Z,50.53
2018-03-06T16:50:00.513Z,49.20
2018-03-06T16:56:05.022Z,46.63
2018-03-06T17:02:09.827Z,52.97
2018-03-06T17:08:15.209Z,47.40
2018-03-06T17:14:20.403Z,48.37
2018-03-06T17:20:25.881Z,52.93
2018-03-06T17:26:30.379Z,56.03
2018-03-06T17:32:35.704Z,54.90
2018-03-06T17:38:40.223Z,54.27
2018-03-06T17:44:44.718Z,56.30
2018-03-06T17:50:49.339Z,92.03
2018-03-06T17:56:54.303Z,80.00
2018-03-06T18:02:59.762Z,54.97
2018-03-06T18:09:04.290Z,55.27
2018-03-06T18:15:09.563Z,49.80
2018-03-06T18:21:14.168Z,51.87
2018-03-06T18:27:19.896Z,51.90
2018-03-06T18:33:24.631Z,59.43
2018-03-06T18:39:29.103Z,61.70
2018-03-06T18:45:33.603Z,60.60
2018-03-06T18:51:38.128Z,61.70
2018-03-06T18:57:42.601Z,64.30
2018-03-06T19:04:04.929Z,60.47
2018-03-06T19:10:09.387Z,60.63
2018-03-06T19:16:14.124Z,58.40
2018-03-06T19:22:18.746Z,57.87
2018-03-06T19:28:23.483Z,61.00
2018-03-06T19:34:27.985Z,54.50
2018-03-06T19:40:33.267Z,55.37
2018-03-06T19:46:38.696Z,51.57
2018-03-06T19:52:44.042Z,53.00
2018-03-06T19:58:49.372Z,51.40
2018-03-06T20:04:53.923Z,51.70
2018-03-06T20:10:58.452Z,50.63
2018-03-06T20:17:03.074Z,53.60
2018-03-06T20:23:07.731Z,55.03
2018-03-06T20:29:12.272Z,54.93
2018-03-06T20:35:17.557Z,54.53
2018-03-06T20:41:23.855Z,53.37
2018-03-06T20:47:28.534Z,55.70
2018-03-06T20:53:39.334Z,55.53
2018-03-06T20:59:43.842Z,61.07
2018-03-06T21:05:48.374Z,57.70
2018-03-06T21:11:52.919Z,58.40
2018-03-06T21:17:58.176Z,57.87
2018-03-06T21:24:02.791Z,56.17
2018-03-06T21:30:08.097Z,58.00
2018-03-06T21:36:12.781Z,53.17
2018-03-06T21:42:18.043Z,57.37
2018-03-06T21:48:23.425Z,56.87
2018-03-06T21:54:28.708Z,49.60
2018-03-06T22:00:33.191Z,57.50
2018-03-06T22:06:37.753Z,58.60
2018-03-06T22:12:42.249Z,58.53
2018-03-06T22:18:47.058Z,55.37
2018-03-06T22:24:51.570Z,55.67
2018-03-06T22:30:56.816Z,55.43
2018-03-06T22:37:01.320Z,61.13
2018-03-06T22:43:05.966Z,59.40
2018-03-06T22:49:10.530Z,56.53
2018-03-06T22:55:15.223Z,54.90
2018-03-06T23:01:20.627Z,54.60
2018-03-06T23:07:25.159Z,54.97
2018-03-06T23:13:30.579Z,55.50
2018-03-06T23:19:35.128Z,55.97
2018-03-06T23:25:40.505Z,56.30
2018-03-06T23:31:45.223Z,56.17
2018-03-06T23:37:50.005Z,56.93
2018-03-06T23:43:54.527Z,57.70
2018-03-06T23:49:59.037Z,57.10
2018-03-06T23:56:03.692Z,54.50
